createdAt,value
2018-08-20T00:04:20.044Z,22.10
2018-08-20T00:10:23.750Z,22.20
2018-08-20T00:16:27.155Z,22.10
2018-08-20T00:22:30.685Z,22.00
2018-08-20T00:28:33.992Z,22.00
2018-08-20T00:34:38.605Z,22.00
2018-08-20T00:40:42.628Z,21.90
2018-08-20T00:46:46.488Z,21.90
2018-08-20T00:52:50.030Z,21.90
2018-08-20T00:58:53.738Z,21.90
2018-08-20T01:04:57.964Z,21.90
2018-08-20T01:11:01.495Z,21.90
2018-08-20T01:17:05.177Z,21.90
2018-08-20T01:23:08.953Z,21.80
2018-08-20T01:29:12.435Z,21.80
2018-08-20T01:35:25.207Z,21.70
2018-08-20T01:41:28.650Z,21.70
2018-08-20T01:47:32.143Z,21.60
2018-08-20T01:53:35.689Z,21.60
2018-08-20T01:59:39.080Z,21.50
2018-08-20T02:05:42.534Z,21.40
2018-08-20T02:12:54.977Z,21.20
2018-08-20T02:18:58.537Z,20.90
2018-08-20T02:25:01.901Z,20.80
2018-08-20T02:31:05.638Z,20.60
2018-08-20T02:37:09.771Z,20.70
2018-08-20T02:43:13.314Z,20.70
2018-08-20T02:49:17.410Z,20.70
2018-08-20T02:55:20.677Z,20.70
2018-08-20T03:01:24.252Z,20.70
2018-08-20T03:07:28.801Z,20.80
2018-08-20T03:13:33.477Z,20.70
2018-08-20T03:19:37.016Z,20.80
2018-08-20T03:25:41.115Z,20.80
2018-08-20T03:31:45.527Z,20.70
2018-08-20T03:37:49.328Z,20.80
2018-08-20T03:43:52.915Z,20.80
2018-08-20T03:49:56.455Z,20.80
2018-08-20T03:55:59.957Z,20.80
2018-08-20T04:02:04.762Z,20.80
2018-08-20T04:08:08.147Z,20.80
2018-08-20T04:14:11.992Z,20.80
2018-08-20T04:20:15.637Z,20.80
2018-08-20T04:26:20.684Z,20.70
2018-08-20T04:32:24.279Z,20.70
2018-08-20T04:38:27.646Z,20.80
2018-08-20T04:44:31.342Z,20.80
2018-08-20T04:50:35.383Z,20.80
2018-08-20T04:56:38.911Z,20.80
2018-08-20T05:02:42.327Z,20.70
2018-08-20T05:08:46.082Z,20.70
2018-08-20T05:14:49.683Z,20.60
2018-08-20T05:20:53.229Z,20.60
2018-08-20T05:26:56.456Z,20.60
2018-08-20T05:33:00.638Z,20.60
2018-08-20T05:39:06.310Z,20.60
2018-08-20T05:45:11.297Z,20.50
2018-08-20T05:51:14.840Z,20.40
2018-08-20T05:57:18.252Z,20.30
2018-08-20T06:03:22.109Z,20.20
2018-08-20T06:09:25.664Z,20.20
2018-08-20T06:15:29.377Z,20.10
2018-08-20T06:21:33.326Z,20.10
2018-08-20T06:27:36.991Z,20.10
2018-08-20T06:33:40.582Z,20.10
2018-08-20T06:39:44.144Z,20.10
2018-08-20T06:45:47.833Z,20.00
2018-08-20T06:51:51.838Z,20.10
2018-08-20T06:58:02.406Z,20.10
2018-08-20T07:04:06.176Z,20.10
2018-08-20T07:10:12.508Z,20.10
2018-08-20T07:16:16.249Z,20.10
2018-08-20T07:22:19.587Z,20.10
2018-08-20T07:28:23.523Z,20.20
2018-08-20T07:34:27.210Z,20.20
2018-08-20T07:40:30.794Z,20.30
2018-08-20T07:46:34.322Z,20.30
2018-08-20T07:52:38.015Z,20.40
2018-08-20T07:58:41.539Z,20.40
2018-08-20T08:04:45.067Z,20.60
2018-08-20T08:10:49.543Z,20.70
2018-08-20T08:16:53.135Z,20.80
2018-08-20T08:22:56.532Z,20.90
2018-08-20T08:29:00.120Z,20.90
2018-08-20T08:35:04.116Z,21.00
2018-08-20T08:41:07.455Z,21.10
2018-08-20T08:47:10.996Z,21.10
2018-08-20T08:53:14.719Z,21.20
2018-08-20T08:59:18.622Z,21.20
2018-08-20T09:05:27.889Z,21.20
2018-08-20T09:11:31.515Z,21.30
2018-08-20T09:17:34.939Z,21.30
2018-08-20T09:23:38.809Z,21.30
2018-08-20T09:29:42.322Z,21.50
2018-08-20T09:35:46.616Z,21.60
2018-08-20T09:41:50.180Z,21.60
2018-08-20T09:47:54.397Z,21.70
2018-08-20T09:53:58.365Z,21.70
2018-08-20T10:00:02.644Z,21.70
2018-08-20T10:06:06.727Z,21.90
2018-08-20T10:12:15.330Z,22.10
2018-08-20T10:18:19.327Z,22.30
2018-08-20T10:24:27.320Z,22.60
2018-08-20T10:30:32.146Z,23.10
2018-08-20T10:36:37.572Z,23.50
2018-08-20T10:42:41.785Z,23.70
2018-08-20T10:48:47.149Z,23.80
2018-08-20T10:54:51.745Z,24.00
2018-08-20T11:00:55.461Z,24.10
2018-08-20T11:07:00.089Z,24.30
2018-08-20T11:13:04.981Z,24.50
2018-08-20T11:19:10.984Z,24.60
2018-08-20T11:25:15.547Z,24.90
2018-08-20T11:31:20.216Z,25.10
2018-08-20T11:37:25.074Z,25.00
2018-08-20T11:43:29.499Z,24.90
2018-08-20T11:49:35.371Z,25.00
2018-08-20T11:55:39.603Z,24.80
2018-08-20T12:01:43.371Z,24.80
2018-08-20T12:07:48.469Z,24.90
2018-08-20T12:13:52.754Z,24.60
2018-08-20T12:19:56.565Z,24.40
2018-08-20T12:26:01.746Z,24.30
2018-08-20T12:32:05.514Z,24.00
2018-08-20T12:38:09.878Z,23.70
2018-08-20T12:44:13.218Z,23.60
2018-08-20T12:50:16.621Z,23.50
2018-08-20T12:56:20.050Z,23.50
2018-08-20T13:02:23.445Z,23.50
2018-08-20T13:08:26.832Z,23.60
2018-08-20T13:14:30.239Z,23.80
2018-08-20T13:20:34.388Z,23.80
2018-08-20T13:26:37.932Z,23.90
2018-08-20T13:32:41.284Z,24.00
2018-08-20T13:38:44.776Z,23.90
2018-08-20T13:44:48.315Z,23.80
2018-08-20T13:50:54.075Z,24.00
2018-08-20T13:56:57.520Z,24.40
2018-08-20T14:03:01.062Z,24.50
2018-08-20T14:09:07.299Z,24.70
2018-08-20T14:15:12.120Z,25.00
2018-08-20T14:21:15.879Z,25.40
2018-08-20T14:27:19.212Z,25.40
2018-08-20T14:33:22.545Z,25.30
2018-08-20T14:39:26.271Z,25.40
2018-08-20T14:45:35.436Z,25.40
2018-08-20T14:51:38.821Z,25.50
2018-08-20T14:57:42.190Z,25.50
2018-08-20T15:03:45.522Z,25.50
2018-08-20T15:09:49.528Z,25.70
2018-08-20T15:15:53.287Z,26.40
2018-08-20T15:21:56.722Z,26.40
2018-08-20T15:28:02.650Z,26.30
2018-08-20T15:34:14.989Z,26.60
2018-08-20T15:40:23.849Z,26.90
2018-08-20T15:46:27.392Z,27.00
2018-08-20T15:52:30.990Z,26.60
2018-08-20T15:58:35.742Z,26.10
2018-08-20T16:04:39.293Z,25.80
2018-08-20T16:10:42.755Z,25.60
2018-08-20T16:16:47.876Z,25.50
2018-08-20T16:22:51.891Z,25.30
2018-08-20T16:28:56.413Z,25.10
2018-08-20T16:35:00.528Z,25.00
2018-08-20T16:41:04.568Z,24.90
2018-08-20T16:47:08.142Z,24.80
2018-08-20T16:53:11.914Z,24.60
2018-08-20T16:59:15.277Z,24.60
2018-08-20T17:05:19.842Z,24.40
2018-08-20T17:11:23.447Z,24.40
2018-08-20T17:17:27.341Z,24.30
2018-08-20T17:23:34.485Z,24.20
2018-08-20T17:29:38.457Z,24.10
2018-08-20T17:35:43.294Z,24.00
2018-08-20T17:41:47.439Z,24.00
2018-08-20T17:47:52.026Z,23.90
2018-08-20T17:53:59.863Z,23.90
2018-08-20T18:00:44.303Z,23.80
2018-08-20T18:06:53.147Z,23.70
2018-08-20T18:12:56.921Z,23.60
2018-08-20T18:19:00.813Z,23.60
2018-08-20T18:25:04.700Z,23.50
2018-08-20T18:31:11.029Z,23.40
2018-08-20T18:37:14.497Z,23.30
2018-08-20T18:43:18.213Z,23.20
2018-08-20T18:49:22.250Z,23.00
2018-08-20T18:55:25.927Z,23.00
2018-08-20T19:01:29.414Z,22.90
2018-08-20T19:07:32.768Z,22.90
2018-08-20T19:13:36.195Z,22.90
2018-08-20T19:19:44.390Z,22.90
2018-08-20T19:25:48.205Z,22.80
2018-08-20T19:31:52.243Z,22.80
2018-08-20T19:37:55.571Z,22.70
2018-08-20T19:43:59.671Z,22.70
2018-08-20T19:50:04.877Z,22.70
2018-08-20T19:56:13.478Z,22.60
2018-08-20T20:02:19.453Z,22.60
2018-08-20T20:08:22.868Z,22.50
2018-08-20T20:14:33.584Z,22.50
2018-08-20T20:20:37.476Z,22.40
2018-08-20T20:26:41.767Z,22.40
2018-08-20T20:32:46.340Z,22.40
2018-08-20T20:38:50.281Z,22.40
2018-08-20T20:44:55.029Z,22.40
2018-08-20T20:50:59.199Z,22.30
2018-08-20T20:57:03.684Z,22.30
2018-08-20T21:03:10.282Z,22.20
2018-08-20T21:09:13.938Z,22.20
2018-08-20T21:15:17.970Z,22.20
2018-08-20T21:21:22.301Z,22.10
2018-08-20T21:27:28.168Z,22.10
2018-08-20T21:33:33.532Z,22.00
2018-08-20T21:39:37.383Z,22.00
2018-08-20T21:45:40.944Z,21.90
2018-08-20T21:51:50.172Z,21.90
2018-08-20T21:57:57.264Z,21.90
2018-08-20T22:04:03.929Z,21.80
2018-08-20T22:10:08.591Z,21.80
2018-08-20T22:16:18.030Z,21.80
2018-08-20T22:22:25.149Z,21.70
2018-08-20T22:28:28.594Z,21.70
2018-08-20T22:34:31.920Z,21.70
2018-08-20T22:40:35.355Z,21.60
2018-08-20T22:46:38.793Z,21.60
2018-08-20T22:52:43.984Z,21.50
2018-08-20T22:58:48.545Z,21.50
2018-08-20T23:04:57.337Z,21.40
2018-08-20T23:11:00.939Z,21.40
2018-08-20T23:17:04.447Z,21.30
2018-08-20T23:23:07.848Z,21.30
2018-08-20T23:29:11.515Z,21.30
2018-08-20T23:35:15.103Z,21.30
2018-08-20T23:41:18.470Z,21.20
2018-08-20T23:47:21.863Z,21.20
2018-08-20T23:53:25.770Z,21.20
2018-08-20T23:59:29.026Z,21.20
